Time;durP1;ratioP1;P1;durP2;ratioP2;P2;SDS_P1;SDS_P2;PMS_P1;PMS_P2;Temp;Humidity;BMP_temperature;BMP_pressure;BME280_temperature;BME280_humidity;BME280_pressure;Samples;Min_cycle;Max_cycle;Signal;HPM_P1;HPM_P2
2023/11/15 00:00:18;;;;;;;;;;;;;;;19.82;62.43;100255.00;7398476;19;1435;-51
2023/11/15 00:02:46;;;;;;;;;;;;;;;19.81;62.55;100253.28;7397346;19;1498;-51
2023/11/15 00:05:17;;;;;;;;;;;;;;;19.79;62.81;100249.09;7397702;19;1557;-51
2023/11/15 00:07:45;;;;;;;;;;;;;;;19.76;62.48;100239.50;7395472;19;1193;-52
2023/11/15 00:10:13;;;;;;;;;;;;;;;19.76;62.93;100242.19;7394958;19;1840;-51
2023/11/15 00:12:42;;;;;;;;;;;;;;;19.74;62.64;100241.50;7394346;19;1893;-51
2023/11/15 00:15:11;;;;;;;;;;;;;;;19.73;62.83;100223.72;7396679;19;1768;-52
2023/11/15 00:17:39;;;;;;;;;;;;;;;19.72;62.93;100227.41;7382118;19;1436;-51
2023/11/15 00:20:10;;;;;;;;;;;;;;;19.74;63.03;100221.88;7396601;19;1498;-50
2023/11/15 00:22:41;;;;;;;;;;;;;;;19.73;63.16;100218.34;7397134;19;1546;-51
2023/11/15 00:25:10;;;;;;;;;;;;;;;19.70;62.93;100213.28;7396414;19;1491;-51
2023/11/15 00:27:38;;;;;;;;;;;;;;;19.70;63.14;100217.81;7394949;19;1482;-52
2023/11/15 00:30:10;;;;;;;;;;;;;;;19.70;63.34;100213.28;7396514;19;1947;-51
2023/11/15 00:32:38;;;;;;;;;;;;;;;19.72;63.17;100224.72;7394249;19;1850;-51
2023/11/15 00:35:08;;;;;;;;;;;;;;;19.72;62.98;100222.03;7397009;19;1594;-51
2023/11/15 00:37:37;;;;;;;;;;;;;;;19.73;62.72;100207.63;7396368;19;1499;-51
2023/11/15 00:40:10;;;;;;;;;;;;;;;19.70;62.78;100215.94;7396379;19;1590;-52
2023/11/15 00:42:38;;;;;;;;;;;;;;;19.70;63.24;100220.47;7394468;19;1510;-51
2023/11/15 00:45:08;;;;;;;;;;;;;;;19.69;62.91;100211.56;7396278;19;1479;-51
2023/11/15 00:47:37;;;;;;;;;;;;;;;19.68;63.23;100208.06;7396813;19;1813;-52
2023/11/15 00:50:06;;;;;;;;;;;;;;;19.66;62.97;100215.41;7395947;19;1127;-51
2023/11/15 00:52:34;;;;;;;;;;;;;;;19.66;62.95;100223.47;7393637;19;1845;-51
2023/11/15 00:55:02;;;;;;;;;;;;;;;19.66;63.02;100218.09;7395590;19;1550;-50
2023/11/15 00:57:34;;;;;;;;;;;;;;;19.66;63.10;100206.53;7395012;19;1618;-51
2023/11/15 01:00:13;;;;;;;;;;;;;;;19.63;63.27;100210.34;7395166;19;1538;-50
2023/11/15 01:02:46;;;;;;;;;;;;;;;19.66;63.11;100211.88;7395652;19;1539;-51
2023/11/15 01:05:14;;;;;;;;;;;;;;;19.62;62.81;100211.34;7395105;19;1581;-51
2023/11/15 01:07:43;;;;;;;;;;;;;;;19.65;62.84;100200.28;7395647;19;1207;-51
2023/11/15 01:10:12;;;;;;;;;;;;;;;19.66;62.77;100204.69;7395485;19;1574;-50
2023/11/15 01:12:43;;;;;;;;;;;;;;;19.64;62.51;100209.34;7392666;19;1845;-51
2023/11/15 01:15:12;;;;;;;;;;;;;;;19.65;62.80;100211.03;7395051;19;1541;-50
2023/11/15 01:17:40;;;;;;;;;;;;;;;19.63;62.76;100193.41;7379907;19;1487;-52
2023/11/15 01:20:08;;;;;;;;;;;;;;;19.64;62.76;100204.00;7395314;19;1570;-52
2023/11/15 01:22:37;;;;;;;;;;;;;;;19.62;63.04;100189.88;7393910;19;1558;-51
2023/11/15 01:25:06;;;;;;;;;;;;;;;19.62;62.64;100191.75;7394640;19;1686;-51
2023/11/15 01:27:35;;;;;;;;;;;;;;;19.54;62.96;100164.84;7393386;19;1574;-52
2023/11/15 01:30:08;;;;;;;;;;;;;;;19.63;63.09;100163.91;7395084;19;1491;-51
2023/11/15 01:32:36;;;;;;;;;;;;;;;19.61;63.01;100164.06;7394887;19;1863;-51
2023/11/15 01:35:05;;;;;;;;;;;;;;;19.61;62.99;100174.78;7394696;19;1569;-51
2023/11/15 01:37:34;;;;;;;;;;;;;;;19.60;63.15;100154.34;7394240;19;1519;-50
2023/11/15 01:40:06;;;;;;;;;;;;;;;19.61;63.10;100137.22;7392484;19;1555;-51
2023/11/15 01:42:34;;;;;;;;;;;;;;;19.60;62.97;100137.41;7393835;19;1447;-51
2023/11/15 01:45:03;;;;;;;;;;;;;;;19.57;62.86;100135.03;7393538;19;1706;-52
2023/11/15 01:47:34;;;;;;;;;;;;;;;19.57;62.57;100145.75;7394829;19;1510;-51
2023/11/15 01:50:04;;;;;;;;;;;;;;;19.57;62.63;100146.59;7394722;19;1503;-51
2023/11/15 01:52:32;;;;;;;;;;;;;;;19.58;62.67;100155.50;7394533;19;1872;-52
2023/11/15 01:55:01;;;;;;;;;;;;;;;19.57;62.66;100156.47;7393277;19;1491;-57
2023/11/15 01:57:30;;;;;;;;;;;;;;;19.58;62.98;100142.91;7392810;19;1415;-51
2023/11/15 01:59:59;;;;;;;;;;;;;;;19.60;63.12;100145.44;7394979;19;1467;-51
2023/11/15 02:02:27;;;;;;;;;;;;;;;19.56;62.74;100118.09;7394254;19;1589;-52
2023/11/15 02:04:58;;;;;;;;;;;;;;;19.55;63.20;100128.97;7394956;19;1584;-51
2023/11/15 02:07:26;;;;;;;;;;;;;;;19.54;63.16;100122.78;7392370;19;1616;-52
2023/11/15 02:09:55;;;;;;;;;;;;;;;19.54;63.08;100120.09;7392977;19;1547;-53
2023/11/15 02:12:26;;;;;;;;;;;;;;;19.52;63.22;100135.50;7393446;19;1847;-51
2023/11/15 02:14:54;;;;;;;;;;;;;;;19.53;63.20;100137.16;7393380;19;1466;-52
2023/11/15 02:17:23;;;;;;;;;;;;;;;19.52;63.15;100115.84;7378844;19;1439;-53
2023/11/15 02:19:51;;;;;;;;;;;;;;;19.51;62.80;100128.44;7392777;19;1483;-52
2023/11/15 02:22:23;;;;;;;;;;;;;;;19.62;62.92;100130.06;7393619;19;1585;-51
2023/11/15 02:24:54;;;;;;;;;;;;;;;20.21;61.56;100125.81;7393059;19;1502;-51
2023/11/15 02:27:22;;;;;;;;;;;;;;;20.65;60.60;100114.97;7394681;19;1569;-51
2023/11/15 02:29:51;;;;;;;;;;;;;;;21.34;58.80;100112.06;7393089;19;1609;-51
2023/11/15 02:32:19;;;;;;;;;;;;;;;21.72;57.77;100104.38;7391928;19;1845;-51
2023/11/15 02:34:47;;;;;;;;;;;;;;;21.75;57.74;100098.66;7393671;19;1613;-51
2023/11/15 02:37:16;;;;;;;;;;;;;;;21.92;57.17;100099.47;7390910;19;1487;-52
2023/11/15 02:39:44;;;;;;;;;;;;;;;22.04;56.90;100089.19;7392623;19;1550;-51
2023/11/15 02:42:15;;;;;;;;;;;;;;;22.33;56.51;100090.50;7392837;19;1906;-51
2023/11/15 02:44:43;;;;;;;;;;;;;;;22.30;56.25;100080.06;7392047;19;1447;-52
2023/11/15 02:47:11;;;;;;;;;;;;;;;22.32;56.24;100089.66;7391948;19;1524;-51
2023/11/15 02:49:40;;;;;;;;;;;;;;;22.14;56.69;100089.81;7390848;19;1663;-50
2023/11/15 02:52:08;;;;;;;;;;;;;;;22.24;56.58;100092.34;7390502;19;1854;-51
2023/11/15 02:54:34;;;;;;;;;;;;;;;22.24;56.41;100098.59;7391631;19;1471;-51
2023/11/15 02:57:03;;;;;;;;;;;;;;;22.27;56.40;100096.56;7390444;19;1534;-51
2023/11/15 02:59:33;;;;;;;;;;;;;;;22.43;56.20;100097.34;7389702;19;1527;-51
2023/11/15 03:02:02;;;;;;;;;;;;;;;22.31;56.19;100100.59;7390178;19;1852;-51
2023/11/15 03:04:30;;;;;;;;;;;;;;;22.32;56.48;100102.25;7391543;19;1487;-51
2023/11/15 03:06:59;;;;;;;;;;;;;;;22.37;56.31;100091.81;7391691;19;1099;-50
2023/11/15 03:09:27;;;;;;;;;;;;;;;22.38;56.22;100094.34;7389617;19;1375;-51
2023/11/15 03:11:55;;;;;;;;;;;;;;;22.39;56.17;100069.06;7389869;19;1863;-51
2023/11/15 03:14:25;;;;;;;;;;;;;;;22.49;56.25;100079.63;7391825;19;1610;-51
2023/11/15 03:16:56;;;;;;;;;;;;;;;22.44;56.22;100082.00;7377041;19;1443;-51
2023/11/15 03:19:25;;;;;;;;;;;;;;;22.49;56.08;100095.81;7395075;19;1441;-51
2023/11/15 03:21:53;;;;;;;;;;;;;;;22.55;55.86;100105.88;7398573;19;1534;-51
2023/11/15 03:24:22;;;;;;;;;;;;;;;22.52;56.16;100110.78;7399390;19;1554;-51
2023/11/15 03:26:50;;;;;;;;;;;;;;;22.59;55.95;100107.22;7398438;19;1502;-51
2023/11/15 03:29:16;;;;;;;;;;;;;;;22.58;55.95;100100.16;7398735;19;1554;-51
2023/11/15 03:31:44;;;;;;;;;;;;;;;22.61;55.80;100115.97;7398732;19;1850;-51
2023/11/15 03:34:15;;;;;;;;;;;;;;;22.63;55.56;100097.75;7398588;19;1593;-52
2023/11/15 03:36:44;;;;;;;;;;;;;;;22.64;55.60;100110.22;7399208;19;1483;-51
2023/11/15 03:39:12;;;;;;;;;;;;;;;22.67;55.46;100098.25;7398532;19;1514;-51
2023/11/15 03:41:41;;;;;;;;;;;;;;;22.67;55.54;100081.25;7398351;19;1510;-51
2023/11/15 03:44:10;;;;;;;;;;;;;;;22.66;55.67;100072.34;7398758;19;1852;-51
2023/11/15 03:46:38;;;;;;;;;;;;;;;22.72;55.65;100073.44;7398509;19;1495;-51
2023/11/15 03:49:06;;;;;;;;;;;;;;;22.75;55.42;100067.72;7398028;19;1610;-51
2023/11/15 03:51:37;;;;;;;;;;;;;;;22.70;55.69;100086.28;7397679;19;1859;-51
2023/11/15 03:54:06;;;;;;;;;;;;;;;22.76;55.27;100083.72;7397329;19;1586;-51
2023/11/15 03:56:34;;;;;;;;;;;;;;;22.28;56.57;100065.91;7397535;19;1559;-41
2023/11/15 03:59:05;;;;;;;;;;;;;;;21.75;57.58;100050.22;7397304;19;1605;-40
2023/11/15 04:01:33;;;;;;;;;;;;;;;21.52;58.26;100054.63;7397253;19;1483;-41
2023/11/15 04:04:02;;;;;;;;;;;;;;;21.33;58.57;100045.88;7398487;19;1613;-41
2023/11/15 04:06:30;;;;;;;;;;;;;;;21.19;58.78;100049.22;7396932;19;1503;-41
2023/11/15 04:09:01;;;;;;;;;;;;;;;21.11;59.21;100041.13;7397487;19;1176;-41
2023/11/15 04:11:30;;;;;;;;;;;;;;;20.97;59.38;100030.06;7397024;19;1522;-41
2023/11/15 04:13:58;;;;;;;;;;;;;;;20.94;59.55;100030.38;7395018;19;1855;-41
2023/11/15 04:16:26;;;;;;;;;;;;;;;20.91;59.72;100013.72;7396706;19;1448;-41
2023/11/15 04:18:55;;;;;;;;;;;;;;;20.91;59.43;99998.47;7382191;19;2171;-41
2023/11/15 04:21:23;;;;;;;;;;;;;;;20.87;59.45;99981.00;7396495;19;1471;-41
2023/11/15 04:23:51;;;;;;;;;;;;;;;20.80;59.86;99974.59;7399057;19;1139;-41
2023/11/15 04:26:22;;;;;;;;;;;;;;;20.80;59.65;99945.03;7396239;19;1581;-40
2023/11/15 04:28:51;;;;;;;;;;;;;;;20.80;59.52;99963.84;7396713;19;1548;-41
2023/11/15 04:31:20;;;;;;;;;;;;;;;20.80;59.46;99969.22;7395075;19;1498;-41
2023/11/15 04:33:49;;;;;;;;;;;;;;;20.70;59.78;99981.97;7394356;19;1854;-41
2023/11/15 04:36:19;;;;;;;;;;;;;;;20.51;60.10;99954.38;7396906;19;1187;-41
2023/11/15 04:38:47;;;;;;;;;;;;;;;20.54;60.31;99959.41;7396133;19;1448;-41
2023/11/15 04:41:16;;;;;;;;;;;;;;;20.49;60.31;99977.88;7395699;19;1659;-40
2023/11/15 04:43:47;;;;;;;;;;;;;;;20.56;60.18;99962.78;7394949;19;1725;-40
2023/11/15 04:46:15;;;;;;;;;;;;;;;20.61;60.21;99971.22;7392955;19;1602;-40
2023/11/15 04:48:43;;;;;;;;;;;;;;;20.49;60.34;99950.16;7392879;19;1495;-40
2023/11/15 04:51:11;;;;;;;;;;;;;;;20.42;60.64;99956.19;7393760;19;1622;-41
2023/11/15 04:53:40;;;;;;;;;;;;;;;20.39;60.11;99950.31;7391165;19;1851;-41
2023/11/15 04:56:08;;;;;;;;;;;;;;;20.26;59.87;99935.53;7393862;19;1536;-51
2023/11/15 04:58:37;;;;;;;;;;;;;;;20.43;59.75;99962.41;7392950;19;1495;-53
2023/11/15 05:01:08;;;;;;;;;;;;;;;20.48;59.67;99949.34;7393019;19;1554;-51
2023/11/15 05:03:37;;;;;;;;;;;;;;;20.47;59.62;99950.34;7397603;19;1218;-52
2023/11/15 05:06:05;;;;;;;;;;;;;;;20.54;59.39;99932.56;7395289;19;1526;-51
2023/11/15 05:08:34;;;;;;;;;;;;;;;20.36;59.61;99924.63;7394012;19;1534;-51
2023/11/15 05:11:02;;;;;;;;;;;;;;;20.39;59.80;99923.47;7369744;19;12712;-51
2023/11/15 05:13:31;;;;;;;;;;;;;;;20.31;59.64;99953.81;7392947;19;1853;-51
2023/11/15 05:16:00;;;;;;;;;;;;;;;20.17;60.15;99933.81;7395128;19;1581;-51
2023/11/15 05:18:31;;;;;;;;;;;;;;;20.14;60.05;99920.72;7378133;19;1502;-52
2023/11/15 05:20:59;;;;;;;;;;;;;;;20.10;59.18;99908.66;7393667;19;1904;-53
2023/11/15 05:23:28;;;;;;;;;;;;;;;20.13;59.84;99894.88;7394708;19;1598;-52
2023/11/15 05:25:57;;;;;;;;;;;;;;;19.78;59.73;99823.53;7395694;19;1491;-52
2023/11/15 05:28:25;;;;;;;;;;;;;;;20.13;60.14;99908.31;7396126;19;1554;-52
2023/11/15 05:30:54;;;;;;;;;;;;;;;19.66;60.37;99812.25;7394497;19;1564;-51
2023/11/15 05:33:23;;;;;;;;;;;;;;;20.18;60.44;99884.50;7393974;19;1842;-41
2023/11/15 05:35:54;;;;;;;;;;;;;;;20.17;60.51;99888.19;7394446;19;1459;-41
2023/11/15 05:38:23;;;;;;;;;;;;;;;20.17;60.80;99893.53;7394730;19;1637;-41
2023/11/15 05:40:51;;;;;;;;;;;;;;;20.15;61.23;99863.34;7394020;19;1483;-40
2023/11/15 05:43:20;;;;;;;;;;;;;;;20.15;61.27;99868.72;7394141;19;1554;-41
2023/11/15 05:45:48;;;;;;;;;;;;;;;20.19;61.55;99890.69;7394686;19;1581;-40
2023/11/15 05:48:17;;;;;;;;;;;;;;;20.22;61.68;99895.75;7393454;19;1599;-40
2023/11/15 05:50:46;;;;;;;;;;;;;;;20.26;61.89;99881.00;7393127;19;1385;-40
2023/11/15 05:53:17;;;;;;;;;;;;;;;20.36;61.51;99870.09;7392931;19;1857;-40
2023/11/15 05:55:45;;;;;;;;;;;;;;;20.30;61.45;99882.34;7394258;19;1141;-40
2023/11/15 05:58:13;;;;;;;;;;;;;;;20.09;58.69;99890.00;7393064;19;1537;-41
2023/11/15 06:00:42;;;;;;;;;;;;;;;19.76;51.83;99874.66;7391789;19;1425;-40
2023/11/15 06:03:10;;;;;;;;;;;;;;;19.69;51.05;99876.25;7393726;19;1478;-41
2023/11/15 06:05:38;;;;;;;;;;;;;;;19.65;49.92;99872.22;7393952;19;1455;-40
2023/11/15 06:08:07;;;;;;;;;;;;;;;19.72;50.39;99875.16;7394173;19;1445;-41
2023/11/15 06:10:38;;;;;;;;;;;;;;;19.64;50.18;99862.53;7389780;19;1868;-41
2023/11/15 06:13:07;;;;;;;;;;;;;;;19.65;49.63;99867.69;7389380;19;1881;-41
2023/11/15 06:15:36;;;;;;;;;;;;;;;19.66;49.58;99887.34;7389199;19;1505;-41
2023/11/15 06:18:04;;;;;;;;;;;;;;;19.60;49.52;99880.78;7375309;19;1549;-41
2023/11/15 06:20:32;;;;;;;;;;;;;;;19.61;49.93;99874.38;7384391;19;1571;-41
2023/11/15 06:23:01;;;;;;;;;;;;;;;19.12;51.40;99811.66;7391566;19;1387;-40
2023/11/15 06:25:29;;;;;;;;;;;;;;;19.64;52.15;99894.72;7392460;19;1380;-40
2023/11/15 06:28:03;;;;;;;;;;;;;;;19.84;52.37;99900.69;7390623;19;1376;-40
2023/11/15 06:30:32;;;;;;;;;;;;;;;19.92;52.40;99906.06;7392073;19;1541;-40
2023/11/15 06:33:00;;;;;;;;;;;;;;;19.97;52.45;99900.22;7391662;19;1850;-41
2023/11/15 06:35:28;;;;;;;;;;;;;;;20.01;52.56;99912.28;7391731;19;1499;-40
2023/11/15 06:38:01;;;;;;;;;;;;;;;19.98;52.29;99909.97;7392169;19;1519;-41
2023/11/15 06:40:29;;;;;;;;;;;;;;;19.91;52.74;99904.38;7391166;19;1487;-41
2023/11/15 06:43:00;;;;;;;;;;;;;;;19.77;53.68;99910.38;7391521;19;1475;-41
2023/11/15 06:45:29;;;;;;;;;;;;;;;19.64;54.55;99905.44;7391706;19;1585;-41
2023/11/15 06:48:00;;;;;;;;;;;;;;;19.60;54.76;99922.84;7392013;19;1618;-40
2023/11/15 06:50:28;;;;;;;;;;;;;;;19.54;55.16;99888.63;7392854;19;1475;-41
2023/11/15 06:52:57;;;;;;;;;;;;;;;19.48;55.41;99898.16;7389321;19;1851;-41
2023/11/15 06:55:25;;;;;;;;;;;;;;;19.47;55.54;99896.44;7391456;19;1685;-41
2023/11/15 06:57:53;;;;;;;;;;;;;;;19.43;56.00;99900.47;7391245;19;1546;-41
2023/11/15 07:00:25;;;;;;;;;;;;;;;19.43;56.30;99898.59;7392732;19;1490;-51
2023/11/15 07:02:54;;;;;;;;;;;;;;;19.43;56.02;99901.28;7392218;19;1884;-52
2023/11/15 07:05:22;;;;;;;;;;;;;;;19.40;56.34;99895.44;7391215;19;1499;-50
2023/11/15 07:07:52;;;;;;;;;;;;;;;19.41;56.33;99919.38;7391915;19;1484;-51
2023/11/15 07:10:21;;;;;;;;;;;;;;;19.39;55.95;99897.25;7391082;19;1635;-51
2023/11/15 07:12:51;;;;;;;;;;;;;;;19.37;56.36;99880.47;7362018;19;13837;-50
2023/11/15 07:15:19;;;;;;;;;;;;;;;19.39;56.40;99905.28;7390447;19;1526;-51
2023/11/15 07:17:50;;;;;;;;;;;;;;;19.38;56.60;99917.03;7390676;19;1581;-52
2023/11/15 07:20:20;;;;;;;;;;;;;;;19.42;56.69;99921.06;7383614;19;2341;-51
2023/11/15 07:22:49;;;;;;;;;;;;;;;19.36;56.42;99911.00;7390178;19;1201;-51
2023/11/15 07:25:18;;;;;;;;;;;;;;;19.40;56.57;99930.28;7390138;19;1554;-51
2023/11/15 07:27:46;;;;;;;;;;;;;;;19.40;56.87;99970.50;7389877;19;1479;-50
2023/11/15 07:30:15;;;;;;;;;;;;;;;19.39;56.67;99958.91;7390532;19;1498;-51
2023/11/15 07:32:43;;;;;;;;;;;;;;;19.43;56.45;99954.91;7389822;19;1514;-51
2023/11/15 07:35:14;;;;;;;;;;;;;;;19.38;56.49;99938.47;7388442;19;1843;-50
2023/11/15 07:37:43;;;;;;;;;;;;;;;19.39;56.28;99934.78;7389835;19;1389;-51
2023/11/15 07:40:12;;;;;;;;;;;;;;;19.42;56.73;99955.09;7390028;19;1554;-51
2023/11/15 07:42:41;;;;;;;;;;;;;;;19.42;56.96;99936.31;7389796;19;1408;-52
2023/11/15 07:45:10;;;;;;;;;;;;;;;19.42;56.81;99947.06;7389013;19;1502;-52
2023/11/15 07:47:39;;;;;;;;;;;;;;;19.42;57.02;99963.97;7390602;19;1391;-51
2023/11/15 07:50:08;;;;;;;;;;;;;;;19.40;56.69;99944.53;7390414;19;1613;-51
2023/11/15 07:52:39;;;;;;;;;;;;;;;19.41;56.76;99940.81;7390330;19;1503;-51
2023/11/15 07:55:10;;;;;;;;;;;;;;;19.43;56.67;99951.41;7386805;19;1870;-50
2023/11/15 07:57:38;;;;;;;;;;;;;;;19.43;56.89;99943.34;7388671;19;1348;-51
2023/11/15 08:00:11;;;;;;;;;;;;;;;19.44;56.74;99951.25;7388906;19;1498;-51
2023/11/15 08:02:41;;;;;;;;;;;;;;;19.45;56.73;99947.56;7389414;19;1510;-51
2023/11/15 08:05:10;;;;;;;;;;;;;;;19.45;56.71;99955.59;7391920;19;1494;-51
2023/11/15 08:07:41;;;;;;;;;;;;;;;19.46;56.91;99992.16;7395564;19;1491;-51
2023/11/15 08:10:13;;;;;;;;;;;;;;;19.44;57.00;99980.75;7396555;19;1522;-53
2023/11/15 08:12:41;;;;;;;;;;;;;;;19.47;56.90;99971.53;7396149;19;1558;-65
2023/11/15 08:15:11;;;;;;;;;;;;;;;19.45;57.11;99993.13;7394385;19;1860;-51
2023/11/15 08:17:40;;;;;;;;;;;;;;;19.44;57.28;99979.91;7395720;19;1538;-52
2023/11/15 08:20:10;;;;;;;;;;;;;;;19.44;57.21;99988.78;7380517;19;1159;-51
2023/11/15 08:22:41;;;;;;;;;;;;;;;19.43;57.12;99981.72;7396162;19;1506;-51
2023/11/15 08:25:11;;;;;;;;;;;;;;;19.44;57.34;99972.69;7395195;19;1447;-51
2023/11/15 08:27:40;;;;;;;;;;;;;;;19.41;57.39;99956.91;7395875;19;1480;-52
2023/11/15 08:30:11;;;;;;;;;;;;;;;19.41;57.19;99945.34;7397115;19;1604;-56
2023/11/15 08:32:41;;;;;;;;;;;;;;;19.43;57.45;99951.41;7396548;19;1636;-52
2023/11/15 08:35:10;;;;;;;;;;;;;;;19.39;57.25;99969.63;7392800;19;1848;-51
2023/11/15 08:37:41;;;;;;;;;;;;;;;19.41;57.40;99958.75;7395957;19;1503;-52
2023/11/15 08:40:11;;;;;;;;;;;;;;;19.40;57.51;99954.41;7395758;19;1565;-51
2023/11/15 08:42:39;;;;;;;;;;;;;;;19.39;56.10;99953.53;7393677;19;1399;-52
2023/11/15 08:45:09;;;;;;;;;;;;;;;19.38;54.56;99951.03;7396275;19;1558;-51
2023/11/15 08:47:37;;;;;;;;;;;;;;;19.42;55.81;99950.56;7393881;19;1425;-51
2023/11/15 08:50:08;;;;;;;;;;;;;;;19.41;56.67;99961.44;7393903;19;1398;-51
2023/11/15 08:52:36;;;;;;;;;;;;;;;19.38;57.02;99965.28;7395366;19;1379;-52
2023/11/15 08:55:08;;;;;;;;;;;;;;;19.41;56.90;99980.22;7393207;19;1846;-52
2023/11/15 08:57:37;;;;;;;;;;;;;;;19.44;57.05;99988.78;7395594;19;1228;-51
2023/11/15 09:00:12;;;;;;;;;;;;;;;19.44;57.14;99982.59;7393718;19;1463;-51
2023/11/15 09:02:41;;;;;;;;;;;;;;;19.44;57.07;99972.69;7395563;19;1558;-53
2023/11/15 09:05:10;;;;;;;;;;;;;;;19.43;57.25;99948.72;7394369;19;1600;-51
2023/11/15 09:07:39;;;;;;;;;;;;;;;19.42;57.15;99957.78;7395856;19;1207;-52
2023/11/15 09:10:13;;;;;;;;;;;;;;;19.43;57.12;99979.03;7394172;19;1479;-52
2023/11/15 09:12:44;;;;;;;;;;;;;;;19.44;56.92;99963.81;7393061;19;1520;-52
2023/11/15 09:15:14;;;;;;;;;;;;;;;19.54;57.11;99980.63;7393549;19;1882;-50
2023/11/15 09:17:45;;;;;;;;;;;;;;;19.66;56.82;99970.47;7394939;19;1553;-51
2023/11/15 09:20:17;;;;;;;;;;;;;;;19.66;56.84;99965.94;7377921;19;1487;-51
2023/11/15 09:22:45;;;;;;;;;;;;;;;19.97;56.09;99978.03;7395756;19;1593;-51
2023/11/15 09:25:21;;;;;;;;;;;;;;;19.98;56.26;99958.25;7391921;19;1802;-51
2023/11/15 09:27:49;;;;;;;;;;;;;;;19.97;56.19;99984.22;7396223;19;1492;-51
2023/11/15 09:30:18;;;;;;;;;;;;;;;19.97;56.10;99978.03;7395649;19;1482;-52
2023/11/15 09:32:46;;;;;;;;;;;;;;;19.97;56.25;99983.41;7392075;19;1551;-51
2023/11/15 09:35:15;;;;;;;;;;;;;;;19.95;55.93;99991.59;7390513;19;1845;-51
2023/11/15 09:37:44;;;;;;;;;;;;;;;19.93;56.11;100008.88;7390325;19;1566;-52
2023/11/15 09:40:13;;;;;;;;;;;;;;;19.90;55.97;99995.78;7391337;19;1581;-51
2023/11/15 09:42:45;;;;;;;;;;;;;;;20.01;56.16;100000.84;7390439;19;1582;-51
2023/11/15 09:45:17;;;;;;;;;;;;;;;19.95;56.31;99990.78;7390136;19;1567;-51
2023/11/15 09:47:47;;;;;;;;;;;;;;;20.00;56.23;99993.81;7390307;19;1479;-51
2023/11/15 09:50:17;;;;;;;;;;;;;;;19.95;56.26;99974.66;7390841;19;1590;-52
2023/11/15 09:52:47;;;;;;;;;;;;;;;20.02;56.39;100002.56;7391263;19;1495;-51
2023/11/15 09:55:15;;;;;;;;;;;;;;;19.98;56.32;100002.03;7389386;19;1853;-51
2023/11/15 09:57:46;;;;;;;;;;;;;;;19.99;56.51;99994.81;7392044;19;1428;-51
2023/11/15 10:00:16;;;;;;;;;;;;;;;19.94;56.62;100002.53;7394069;19;1825;-52
2023/11/15 10:02:45;;;;;;;;;;;;;;;19.96;56.65;100014.78;7393913;19;1575;-51
2023/11/15 10:05:14;;;;;;;;;;;;;;;19.95;56.69;100009.56;7394593;19;1605;-51
2023/11/15 10:07:43;;;;;;;;;;;;;;;19.90;56.51;100028.81;7393527;19;1593;-52
2023/11/15 10:10:18;;;;;;;;;;;;;;;19.84;56.87;100019.56;7394383;19;1582;-51
2023/11/15 10:12:50;;;;;;;;;;;;;;;19.89;56.71;100032.50;7394158;19;1524;-51
2023/11/15 10:15:33;;;;;;;;;;;;;;;19.94;56.64;100029.34;7391901;19;1851;-51
2023/11/15 10:18:03;;;;;;;;;;;;;;;19.94;56.53;100021.31;7393562;19;1528;-50
2023/11/15 10:20:33;;;;;;;;;;;;;;;20.04;56.49;100027.38;7380107;19;1511;-52
2023/11/15 10:23:02;;;;;;;;;;;;;;;19.95;56.67;100010.38;7394290;19;1569;-51
2023/11/15 10:25:31;;;;;;;;;;;;;;;19.92;56.79;100018.78;7393737;19;1670;-51
2023/11/15 10:28:07;;;;;;;;;;;;;;;20.00;56.65;100015.28;7390006;19;1859;-51
2023/11/15 10:30:35;;;;;;;;;;;;;;;20.01;56.63;100025.00;7393956;19;1569;-51
2023/11/15 10:33:07;;;;;;;;;;;;;;;19.99;56.50;100040.44;7393266;19;1831;-51
2023/11/15 10:35:35;;;;;;;;;;;;;;;19.89;56.63;100042.41;7391811;19;1850;-51
2023/11/15 10:38:04;;;;;;;;;;;;;;;19.91;56.90;100064.53;7392974;19;1621;-52
2023/11/15 10:40:32;;;;;;;;;;;;;;;19.94;56.93;100066.94;7393530;19;1518;-51
2023/11/15 10:43:02;;;;;;;;;;;;;;;19.85;56.89;100082.94;7393356;19;1563;-51
2023/11/15 10:45:34;;;;;;;;;;;;;;;19.88;56.60;100073.75;7395012;19;1551;-51
2023/11/15 10:48:05;;;;;;;;;;;;;;;19.91;56.53;100080.66;7394628;19;1499;-51
2023/11/15 10:50:35;;;;;;;;;;;;;;;20.02;56.74;100104.53;7393633;19;1566;-51
2023/11/15 10:53:04;;;;;;;;;;;;;;;20.08;56.39;100111.13;7392781;19;1538;-51
2023/11/15 10:55:33;;;;;;;;;;;;;;;20.00;56.52;100117.28;7392320;19;1871;-50
2023/11/15 10:58:03;;;;;;;;;;;;;;;19.98;56.59;100113.91;7393971;19;1088;-51
2023/11/15 11:00:34;;;;;;;;;;;;;;;20.01;56.66;100118.94;7391558;19;1655;-51
2023/11/15 11:03:05;;;;;;;;;;;;;;;19.91;56.97;100119.03;7390959;19;1813;-51
2023/11/15 11:05:40;;;;;;;;;;;;;;;19.88;56.85;100100.59;7391822;19;1447;-53
2023/11/15 11:08:18;;;;;;;;;;;;;;;19.89;56.88;100114.84;7392632;19;1855;-50
2023/11/15 11:10:50;;;;;;;;;;;;;;;19.90;56.94;100112.00;7391905;19;1516;-52
2023/11/15 11:13:21;;;;;;;;;;;;;;;19.82;56.91;100094.00;7392549;19;1447;-52
2023/11/15 11:15:52;;;;;;;;;;;;;;;19.82;56.93;100115.47;7391155;19;1852;-52
2023/11/15 11:18:22;;;;;;;;;;;;;;;19.83;57.05;100111.78;7392847;19;1195;-50
2023/11/15 11:21:00;;;;;;;;;;;;;;;19.73;57.30;100111.03;7377208;19;1918;-51
2023/11/15 11:23:30;;;;;;;;;;;;;;;19.83;57.21;100110.94;7392174;19;1638;-50
2023/11/15 11:26:21;;;;;;;;;;;;;;;19.89;57.18;100112.16;7392023;19;1557;-51
2023/11/15 11:29:02;;;;;;;;;;;;;;;19.91;57.02;100112.84;7392896;19;1918;-53
2023/11/15 11:31:35;;;;;;;;;;;;;;;19.90;56.80;100112.00;7392784;19;1504;-52
2023/11/15 11:34:12;;;;;;;;;;;;;;;19.86;57.08;100116.84;7392987;19;1772;-51
2023/11/15 11:36:49;;;;;;;;;;;;;;;19.76;57.29;100137.56;7392287;19;1835;-51
2023/11/15 11:39:22;;;;;;;;;;;;;;;19.85;57.05;100141.97;7392016;19;1317;-51
2023/11/15 11:41:51;;;;;;;;;;;;;;;19.88;56.90;100146.22;7399727;19;1382;-51
2023/11/15 11:44:21;;;;;;;;;;;;;;;19.80;57.01;100143.47;7399804;19;1125;-52
2023/11/15 11:47:11;;;;;;;;;;;;;;;19.87;57.23;100144.50;7398791;19;1688;-51
2023/11/15 11:49:48;;;;;;;;;;;;;;;19.84;57.20;100153.72;7400329;19;1456;-52
2023/11/15 11:52:17;;;;;;;;;;;;;;;19.75;57.40;100143.91;7398564;19;1968;-51
2023/11/15 11:54:46;;;;;;;;;;;;;;;19.78;57.26;100146.31;7398013;19;1845;-50
2023/11/15 11:57:20;;;;;;;;;;;;;;;19.77;57.16;100136.56;7397394;19;1499;-51
2023/11/15 12:00:00;;;;;;;;;;;;;;;19.76;57.26;100160.88;7399317;19;1546;-51
2023/11/15 12:02:38;;;;;;;;;;;;;;;19.88;57.01;100164.16;7398382;19;1569;-52
2023/11/15 12:05:07;;;;;;;;;;;;;;;19.80;57.23;100157.72;7399066;19;1569;-52
2023/11/15 12:07:36;;;;;;;;;;;;;;;19.74;57.27;100152.97;7399034;19;1203;-52
2023/11/15 12:10:05;;;;;;;;;;;;;;;19.76;57.52;100142.09;7398373;19;1542;-51
2023/11/15 12:12:33;;;;;;;;;;;;;;;19.62;57.69;100171.13;7397981;19;1444;-51
2023/11/15 12:15:02;;;;;;;;;;;;;;;19.63;57.75;100174.63;7397383;19;1851;-52
2023/11/15 12:17:44;;;;;;;;;;;;;;;19.70;57.48;100159.63;7398412;19;1339;-51
2023/11/15 12:20:13;;;;;;;;;;;;;;;19.84;57.29;100147.53;7384209;19;1549;-52
2023/11/15 12:22:43;;;;;;;;;;;;;;;19.94;57.04;100161.69;7397715;19;1769;-51
2023/11/15 12:25:13;;;;;;;;;;;;;;;19.83;57.39;100148.50;7397380;19;1546;-51
2023/11/15 12:27:42;;;;;;;;;;;;;;;19.80;57.20;100138.09;7396843;19;1621;-50
2023/11/15 12:30:11;;;;;;;;;;;;;;;19.84;57.04;100159.09;7398575;19;1507;-52
2023/11/15 12:32:42;;;;;;;;;;;;;;;19.69;57.24;100149.88;7398427;19;1581;-52
2023/11/15 12:35:11;;;;;;;;;;;;;;;19.64;57.57;100154.88;7396693;19;1845;-51
2023/11/15 12:37:41;;;;;;;;;;;;;;;19.69;57.53;100136.47;7396735;19;1388;-51
2023/11/15 12:40:19;;;;;;;;;;;;;;;19.65;57.40;100143.13;7397226;19;1534;-51
2023/11/15 12:42:48;;;;;;;;;;;;;;;19.92;57.11;100144.91;7396510;19;1300;-52
2023/11/15 12:45:30;;;;;;;;;;;;;;;20.02;56.69;100139.44;7397100;19;1365;-51
2023/11/15 12:48:07;;;;;;;;;;;;;;;20.08;56.39;100130.75;7396625;19;1391;-51
2023/11/15 12:50:37;;;;;;;;;;;;;;;20.01;56.65;100129.69;7396487;19;1568;-52
2023/11/15 12:53:07;;;;;;;;;;;;;;;20.04;56.75;100119.47;7397627;19;1553;-52
2023/11/15 12:55:36;;;;;;;;;;;;;;;20.09;56.55;100137.78;7395223;19;1844;-51
2023/11/15 12:58:05;;;;;;;;;;;;;;;20.03;56.27;100125.00;7397298;19;1593;-52
2023/11/15 13:00:34;;;;;;;;;;;;;;;20.03;56.55;100150.00;7397081;19;1605;-51
2023/11/15 13:03:17;;;;;;;;;;;;;;;20.05;56.50;100131.03;7396522;19;1831;-50